Currently 49°F in Temecula, California, USA
49°F
50°F / 49°F
calm
0.00"
Saturday, January 19, 2019 12:42 AM PST

Temecula, California Weather Summary
Last 36 Hours

Temperature Winds Hourly Humidity Dewpoint
Time Report Norm Report Norm Max Gusts Precip. Rpt. Norm Rpt. Norm Pressure
1Sat 12:42 AM  49.1°F  47°F  calm  1 mph  3 mph  0.00"  97%  76%  48°F  40°F  30.27"
3Sat 12:40 AM  49.1°F  47°F  calm  1 mph  3 mph  ----  97%  76%  48°F  40°F  30.27"
2Sat 12:00 AM  50.0°F  48°F  1 mph NE  1 mph  6 mph  0.00"  97%  75%  49°F  40°F  30.27"
Fri 11:00 PM  50.7°F  49°F  3 mph NE  1 mph  4 mph  0.00"  97%  73%  50°F  40°F  30.28"
Fri 10:00 PM  51.9°F  51°F  1 mph N  1 mph  4 mph  0.00"  96%  70%  51°F  41°F  30.27"
Fri 09:00 PM  53.2°F  52°F  1 mph NE  1 mph  4 mph  0.00"  95%  68%  52°F  41°F  30.27"
Fri 08:00 PM  54.9°F  54°F  2 mph SW  1 mph  3 mph  0.00"  93%  65%  53°F  42°F  30.26"
Fri 07:00 PM  57.1°F  56°F  1 mph N  2 mph  5 mph  0.00"  88%  61%  53°F  42°F  30.24"
Fri 06:00 PM  59.3°F  59°F  3 mph NE  3 mph  6 mph  0.00"  82%  56%  54°F  43°F  30.22"
Fri 05:00 PM  61.9°F  63°F  2 mph S  3 mph  8 mph  0.00"  74%  49%  53°F  43°F  30.20"
Fri 04:00 PM  63.2°F  67°F  5 mph NE  5 mph  7 mph  0.00"  70%  43%  53°F  43°F  30.18"
Fri 03:00 PM  62.7°F  68°F  4 mph NE  5 mph  8 mph  0.00"  72%  39%  53°F  42°F  30.18"
Fri 02:00 PM  62.1°F  68°F  1 mph N  5 mph  7 mph  0.00"  78%  39%  55°F  41°F  30.19"
Fri 01:00 PM  59.5°F  67°F  2 mph NW  4 mph  12 mph  0.00"  89%  41%  56°F  42°F  30.20"
Fri 12:00 PM  56.8°F  64°F  2 mph SW  3 mph  7 mph  0.00"  98%  46%  56°F  42°F  30.25"
Fri 11:00 AM  55.4°F  59°F  calm  2 mph  4 mph  0.00"  100%  55%  55°F  43°F  30.28"
Fri 10:00 AM  53.5°F  53°F  calm  2 mph  3 mph  0.00"  100%  66%  53°F  42°F  30.28"
Fri 09:00 AM  51.8°F  47°F  calm  1 mph  2 mph  0.00"  100%  77%  52°F  40°F  30.28"
Fri 08:00 AM  50.7°F  43°F  calm  1 mph  5 mph  0.00"  100%  83%  51°F  38°F  30.28"
Fri 07:00 AM  49.9°F  42°F  2 mph NE  1 mph  5 mph  0.00"  100%  84%  50°F  38°F  30.27"
Fri 06:00 AM  50.9°F  43°F  calm  1 mph  none  0.00"  100%  84%  51°F  38°F  30.22"
Fri 05:00 AM  52.0°F  43°F  calm  1 mph  6 mph  0.00"  100%  83%  52°F  38°F  30.24"
Fri 04:00 AM  51.9°F  44°F  1 mph SE  1 mph  4 mph  0.00"  100%  82%  52°F  38°F  30.23"
Fri 03:00 AM  52.1°F  45°F  calm  1 mph  5 mph  0.00"  100%  80%  52°F  39°F  30.24"
Fri 02:00 AM  53.0°F  46°F  calm  1 mph  none  0.00"  100%  78%  53°F  39°F  30.22"
Fri 01:00 AM  54.1°F  46°F  calm  1 mph  6 mph  0.00"  100%  77%  54°F  39°F  30.22"
Fri 12:00 AM  54.8°F  47°F  calm  1 mph  11 mph  0.00"  100%  75%  55°F  40°F  30.22"
Thu 11:00 PM  55.2°F  49°F  3 mph S  1 mph  7 mph  0.00"  100%  73%  55°F  40°F  30.20"
Thu 10:00 PM  56.4°F  50°F  calm  1 mph  7 mph  0.00"  100%  70%  56°F  41°F  30.21"
Thu 09:00 PM  57.3°F  52°F  1 mph SW  1 mph  11 mph  0.01"  100%  68%  57°F  41°F  30.19"
Thu 08:00 PM  57.9°F  54°F  5 mph SW  1 mph  12 mph  0.00"  100%  65%  58°F  42°F  30.16"
Thu 07:00 PM  58.6°F  56°F  2 mph SW  2 mph  9 mph  0.00"  100%  61%  59°F  42°F  30.17"
Thu 06:00 PM  58.9°F  59°F  4 mph S  3 mph  7 mph  0.01"  100%  56%  59°F  43°F  30.17"
Thu 05:00 PM  59.1°F  63°F  4 mph S  3 mph  10 mph  0.00"  100%  49%  59°F  43°F  30.19"
Thu 04:00 PM  59.2°F  67°F  5 mph SW  5 mph  20 mph  0.02"  100%  42%  59°F  42°F  30.17"
Thu 03:00 PM  59.2°F  69°F  8 mph SW  5 mph  19 mph  0.10"  100%  39%  59°F  41°F  30.15"
Thu 02:00 PM  59.1°F  69°F  11 mph SW  5 mph  23 mph  0.01"  100%  38%  59°F  41°F  30.14"
Thu 01:00 PM  58.9°F  67°F  8 mph S  4 mph  17 mph  0.04"  100%  41%  59°F  42°F  30.15"
Thu 12:00 PM  58.3°F  64°F  8 mph S  3 mph  20 mph  0.07"  100%  46%  58°F  42°F  30.18"

  1. Current weather data. No green row appears if the current weather data is also the high or low for the current day.
  2. High temperature for the current day.
  3. Low temperature for the current day.

The Temecula weather pages are a service of WeatherCurrents. Temecula, California is located in the Temecula Valley, in southwestern Riverside County, along the Interstate 15 highway. The Temecula Valley's rolling hills are home to the Temecula wine country, vineyards, golf courses, a casino resort, and Old Town Temecula.
Copyright ©Sat Jan 19 00:43:16 PST 2019  WeatherCurrents. All rights reserved. - Submit questions and comments - Privacy Policy

This page automatically refreshes every 10 minutes.